Time;durP1;ratioP1;P1;durP2;ratioP2;P2;SDS_P1;SDS_P2;PMS_P1;PMS_P2;Temp;Humidity;BMP_temperature;BMP_pressure;BME280_temperature;BME280_humidity;BME280_pressure;Samples;Min_cycle;Max_cycle;Signal;HPM_P1;HPM_P2
2021/03/29 00:01:32;;;;;;;10.00;6.78;;;;;;;13.26;54.38;102073.50;4989774;28;20404;-68
2021/03/29 00:03:58;;;;;;;8.90;7.57;;;;;;;13.19;54.36;102064.97;4987786;28;20503;-68
2021/03/29 00:06:26;;;;;;;9.57;7.47;;;;;;;13.22;54.44;102067.53;4988182;28;20069;-69
2021/03/29 00:08:54;;;;;;;12.30;7.03;;;;;;;13.22;54.35;102070.16;4989275;28;20081;-69
2021/03/29 00:11:23;;;;;;;8.85;7.95;;;;;;;13.22;53.83;102067.53;4989471;28;20452;-69
2021/03/29 00:13:52;;;;;;;8.35;7.55;;;;;;;13.33;53.43;102062.81;4988344;28;20113;-68
2021/03/29 00:16:21;;;;;;;7.35;6.65;;;;;;;13.31;53.28;102068.97;4988950;28;20594;-69
2021/03/29 00:18:49;;;;;;;9.20;6.72;;;;;;;13.23;53.82;102063.16;4987041;28;20577;-68
2021/03/29 00:21:16;;;;;;;8.82;6.72;;;;;;;13.30;53.21;102064.66;4988247;28;20046;-68
2021/03/29 00:23:43;;;;;;;9.18;6.57;;;;;;;13.19;53.20;102069.34;4988566;28;20073;-67
2021/03/29 00:26:10;;;;;;;10.55;7.43;;;;;;;13.15;53.74;102073.81;4986132;28;20129;-68
2021/03/29 00:28:36;;;;;;;12.32;7.05;;;;;;;13.15;53.98;102078.19;4988240;28;20076;-68
2021/03/29 00:31:06;;;;;;;7.72;6.93;;;;;;;13.08;53.79;102075.78;4989702;28;20121;-68
2021/03/29 00:33:34;;;;;;;12.43;6.90;;;;;;;13.15;53.94;102078.19;4989051;28;20046;-68
2021/03/29 00:36:01;;;;;;;10.20;6.82;;;;;;;13.22;53.76;102082.38;4989018;28;20501;-68
2021/03/29 00:38:30;;;;;;;10.13;6.95;;;;;;;13.20;53.81;102081.53;4988244;28;20050;-68
2021/03/29 00:41:00;;;;;;;7.82;6.65;;;;;;;13.05;54.24;102086.38;4988775;28;20109;-68
2021/03/29 00:43:31;;;;;;;9.07;6.55;;;;;;;13.18;53.92;102088.59;5063774;23;20048;-71
2021/03/29 00:46:00;;;;;;;13.38;8.38;;;;;;;13.15;53.94;102089.53;5068759;28;20086;-69
2021/03/29 00:48:29;;;;;;;11.10;7.70;;;;;;;13.00;54.47;102087.41;5072940;28;20036;-69
2021/03/29 00:51:15;;;;;;;9.13;7.43;;;;;;;12.99;54.65;102089.16;5074894;28;20032;-69
2021/03/29 00:53:58;;;;;;;7.20;6.50;;;;;;;13.01;54.42;102097.81;5073955;28;20486;-70
2021/03/29 00:56:25;;;;;;;8.35;6.90;;;;;;;12.99;54.08;102101.38;5073242;28;20475;-71
2021/03/29 00:58:53;;;;;;;9.45;7.63;;;;;;;12.83;54.91;102098.38;5072649;28;20052;-70
2021/03/29 01:01:24;;;;;;;9.13;6.80;;;;;;;12.94;54.84;102098.91;5072171;28;20091;-71
2021/03/29 01:03:58;;;;;;;11.13;6.68;;;;;;;13.02;54.49;102101.31;5072431;28;20068;-72
2021/03/29 01:06:28;;;;;;;15.25;7.38;;;;;;;12.98;54.65;102097.91;5072534;28;20064;-71
2021/03/29 01:09:29;;;;;;;13.77;7.45;;;;;;;12.94;54.54;102101.50;5065904;28;20071;-69
2021/03/29 01:12:02;;;;;;;10.70;6.65;;;;;;;12.88;55.08;102101.69;5069744;28;20451;-71
2021/03/29 01:14:33;;;;;;;8.25;7.03;;;;;;;12.91;55.10;102096.38;5074427;28;20090;-71
2021/03/29 01:17:10;;;;;;;11.13;8.13;;;;;;;12.93;54.55;102104.19;5073692;28;20513;-70
2021/03/29 01:19:45;;;;;;;9.85;7.60;;;;;;;12.72;55.44;102097.81;5068276;28;20090;-72
2021/03/29 01:22:15;;;;;;;10.80;7.45;;;;;;;12.69;55.34;102097.94;5072552;28;20040;-73
2021/03/29 01:24:58;;;;;;;7.32;6.63;;;;;;;12.78;54.97;102095.03;5073344;28;20040;-72
2021/03/29 01:27:31;;;;;;;8.43;6.75;;;;;;;12.77;55.06;102103.78;5074078;28;20044;-72
2021/03/29 01:29:58;;;;;;;9.45;7.40;;;;;;;12.65;55.63;102104.16;5074222;28;20131;-73
2021/03/29 01:32:26;;;;;;;11.98;8.07;;;;;;;12.65;55.87;102101.53;5073870;28;20041;-73
2021/03/29 01:34:55;;;;;;;12.43;7.03;;;;;;;12.62;55.24;102101.63;5057076;28;20068;-72
2021/03/29 01:37:22;;;;;;;8.63;6.88;;;;;;;12.69;55.40;102101.41;5073811;28;20143;-73
2021/03/29 01:39:50;;;;;;;10.77;7.00;;;;;;;12.69;55.60;102100.56;5073770;28;20051;-73
2021/03/29 01:42:17;;;;;;;9.65;6.75;;;;;;;12.71;55.39;102098.75;5073692;28;20064;-72
2021/03/29 01:44:45;;;;;;;8.27;7.10;;;;;;;12.66;55.40;102100.63;5073382;28;20087;-73
2021/03/29 01:47:12;;;;;;;8.55;6.88;;;;;;;12.59;55.76;102099.97;5073400;28;20123;-74
2021/03/29 01:49:38;;;;;;;10.55;8.13;;;;;;;12.64;55.29;102094.59;5073409;28;20044;-74
2021/03/29 01:52:06;;;;;;;8.38;7.40;;;;;;;12.58;55.49;102098.25;5073946;28;20045;-73
2021/03/29 01:54:34;;;;;;;9.95;7.03;;;;;;;12.76;54.58;102091.63;5072782;28;20505;-74
2021/03/29 01:57:11;;;;;;;11.32;7.72;;;;;;;12.39;56.87;102103.13;5073551;28;20550;-74
2021/03/29 01:59:38;;;;;;;14.40;7.75;;;;;;;12.56;56.33;102094.81;5073052;28;20044;-73
2021/03/29 02:02:07;;;;;;;9.88;8.68;;;;;;;12.57;56.02;102100.00;5073755;28;20123;-73
2021/03/29 02:04:34;;;;;;;11.60;10.40;;;;;;;12.29;56.92;102107.75;5073532;28;20060;-74
2021/03/29 02:07:02;;;;;;;11.75;9.85;;;;;;;12.18;57.25;102101.09;5073076;28;20116;-73
2021/03/29 02:09:30;;;;;;;15.60;9.25;;;;;;;12.14;57.31;102102.94;5073122;28;20128;-72
2021/03/29 02:11:57;;;;;;;13.23;9.75;;;;;;;12.21;56.84;102101.03;5073419;28;20348;-72
2021/03/29 02:14:27;;;;;;;14.15;10.07;;;;;;;12.10;57.14;102097.88;5073753;28;20098;-73
2021/03/29 02:16:56;;;;;;;12.93;10.80;;;;;;;12.04;57.29;102107.59;5073029;28;20045;-73
2021/03/29 02:19:25;;;;;;;19.48;11.82;;;;;;;12.10;56.98;102100.47;5073376;28;20044;-72
2021/03/29 02:21:54;;;;;;;15.85;11.05;;;;;;;12.01;57.23;102099.81;5073008;28;20107;-72
2021/03/29 02:24:22;;;;;;;13.13;10.88;;;;;;;11.89;57.63;102100.13;5072799;28;20076;-72
2021/03/29 02:26:49;;;;;;;12.13;10.43;;;;;;;11.79;57.98;102090.78;5066772;28;20076;-74
2021/03/29 02:29:20;;;;;;;14.52;11.55;;;;;;;11.72;58.26;102086.63;5073216;28;20070;-74
2021/03/29 02:31:49;;;;;;;13.65;11.90;;;;;;;11.63;58.42;102097.28;5072505;28;20075;-74
2021/03/29 02:34:16;;;;;;;17.48;12.02;;;;;;;11.65;58.14;102098.09;5072850;28;20041;-74
2021/03/29 02:36:44;;;;;;;16.48;11.77;;;;;;;11.97;57.13;102095.56;5072598;28;20040;-72
2021/03/29 02:39:10;;;;;;;19.15;14.10;;;;;;;11.95;58.04;102097.34;5072551;28;20068;-72
2021/03/29 02:41:37;;;;;;;19.88;13.07;;;;;;;11.88;58.22;102100.16;5072837;28;20072;-71
2021/03/29 02:44:04;;;;;;;21.15;14.82;;;;;;;11.82;58.39;102095.94;5072630;28;20044;-72
2021/03/29 02:46:32;;;;;;;17.75;14.13;;;;;;;11.74;58.58;102097.88;5064835;28;20403;-72
2021/03/29 02:49:03;;;;;;;19.30;15.00;;;;;;;11.78;58.55;102103.00;5072586;28;20033;-72
2021/03/29 02:51:32;;;;;;;24.10;15.40;;;;;;;11.63;58.85;102100.75;5073014;28;20465;-72
2021/03/29 02:54:05;;;;;;;18.42;15.70;;;;;;;11.64;59.07;102102.47;5071811;28;20048;-72
2021/03/29 02:56:37;;;;;;;20.52;16.17;;;;;;;11.57;59.14;102102.69;5072072;28;20045;-71
2021/03/29 02:59:08;;;;;;;18.65;15.98;;;;;;;11.68;59.01;102103.25;5072977;28;20053;-72
2021/03/29 03:01:38;;;;;;;18.45;15.38;;;;;;;11.55;59.20;102097.47;5072701;28;20785;-72
2021/03/29 03:04:08;;;;;;;21.23;15.45;;;;;;;11.57;58.86;102102.69;5072211;28;20068;-72
2021/03/29 03:06:35;;;;;;;20.27;15.60;;;;;;;11.57;59.03;102095.69;5067729;28;20131;-73
2021/03/29 03:09:06;;;;;;;19.20;15.07;;;;;;;11.55;58.94;102098.31;5072152;28;20041;-73
2021/03/29 03:11:34;;;;;;;21.17;16.05;;;;;;;11.54;58.84;102106.22;5072522;28;20033;-73
2021/03/29 03:14:05;;;;;;;19.02;14.77;;;;;;;11.68;58.05;102103.25;5072271;28;20032;-73
2021/03/29 03:16:35;;;;;;;22.45;15.63;;;;;;;11.68;57.86;102101.50;5071954;28;20098;-72
2021/03/29 03:19:06;;;;;;;20.63;15.02;;;;;;;11.50;58.77;102104.56;5072141;28;20055;-73
2021/03/29 03:21:37;;;;;;;18.80;14.63;;;;;;;11.60;58.30;102105.19;5072546;28;20033;-73
2021/03/29 03:24:05;;;;;;;18.73;14.75;;;;;;;11.45;58.41;102102.09;5072141;28;20044;-73
2021/03/29 03:26:31;;;;;;;17.50;14.32;;;;;;;11.55;57.79;102103.53;5072309;28;20143;-73
2021/03/29 03:28:59;;;;;;;19.42;14.13;;;;;;;11.29;58.63;102100.69;5071835;28;20079;-73
2021/03/29 03:31:26;;;;;;;16.80;14.10;;;;;;;11.25;58.96;102106.91;5072038;28;20037;-73
2021/03/29 03:33:54;;;;;;;18.13;14.90;;;;;;;11.04;59.73;102107.41;5072351;28;20037;-73
2021/03/29 03:36:22;;;;;;;16.17;14.32;;;;;;;11.08;59.19;102109.91;5072007;28;20068;-73
2021/03/29 03:38:51;;;;;;;17.90;15.40;;;;;;;11.13;59.48;102107.16;5072071;28;20134;-73
2021/03/29 03:41:26;;;;;;;22.50;15.43;;;;;;;11.16;59.37;102105.34;5071857;28;20104;-74
2021/03/29 03:43:57;;;;;;;15.93;13.63;;;;;;;11.22;58.62;102114.81;5072128;28;20087;-74
2021/03/29 03:46:27;;;;;;;21.08;14.65;;;;;;;11.07;59.33;102120.38;5071663;28;20044;-73
2021/03/29 03:49:03;;;;;;;19.85;14.88;;;;;;;11.08;59.31;102116.84;5065885;28;20037;-72
2021/03/29 03:51:30;;;;;;;18.40;14.13;;;;;;;11.07;59.07;102122.97;5068651;28;20127;-72
2021/03/29 03:53:56;;;;;;;17.30;15.43;;;;;;;11.01;59.52;102109.16;5072299;28;20102;-72
2021/03/29 03:56:24;;;;;;;19.20;15.40;;;;;;;10.99;59.87;102105.75;5071643;28;20041;-71
2021/03/29 03:58:53;;;;;;;21.23;15.27;;;;;;;11.34;58.21;102098.84;5071947;28;20119;-72
2021/03/29 04:01:20;;;;;;;18.27;15.18;;;;;;;10.98;59.30;102101.44;5071667;28;20048;-72
2021/03/29 04:03:46;;;;;;;19.75;14.55;;;;;;;10.93;59.44;102100.66;5071949;28;20105;-72
2021/03/29 04:06:13;;;;;;;18.67;15.45;;;;;;;10.90;60.15;102092.03;5071836;28;20098;-72
2021/03/29 04:08:44;;;;;;;15.90;14.10;;;;;;;10.85;60.03;102102.56;5071916;28;20037;-73
2021/03/29 04:11:11;;;;;;;21.17;15.32;;;;;;;10.79;59.97;102104.47;5063779;28;20155;-72
2021/03/29 04:13:38;;;;;;;16.70;14.88;;;;;;;10.85;60.25;102101.72;5059937;28;20041;-72
2021/03/29 04:16:06;;;;;;;20.98;14.27;;;;;;;10.85;59.47;102105.19;5064833;28;20060;-72
2021/03/29 04:18:34;;;;;;;17.98;15.10;;;;;;;10.89;59.94;102108.59;5063940;28;20044;-72
2021/03/29 04:21:01;;;;;;;19.90;13.57;;;;;;;10.80;59.73;102107.03;5061927;28;20044;-72
2021/03/29 04:23:31;;;;;;;18.73;15.27;;;;;;;10.79;59.99;102104.47;5061472;28;20045;-72
2021/03/29 04:25:58;;;;;;;18.60;15.23;;;;;;;10.83;59.67;102101.75;5062306;28;20067;-71
2021/03/29 04:28:24;;;;;;;21.90;14.93;;;;;;;10.84;59.98;102108.69;5061503;28;20087;-70
2021/03/29 04:30:51;;;;;;;26.80;14.90;;;;;;;10.86;59.97;102114.72;5059025;28;20059;-72
2021/03/29 04:33:19;;;;;;;21.60;14.75;;;;;;;10.80;59.95;102114.84;5058556;28;20128;-72
2021/03/29 04:35:47;;;;;;;22.92;14.88;;;;;;;10.72;59.90;102125.47;5069488;28;20398;-71
2021/03/29 04:38:14;;;;;;;15.25;13.63;;;;;;;10.81;59.86;102119.16;5066990;28;20586;-71
2021/03/29 04:40:40;;;;;;;18.70;14.63;;;;;;;10.75;59.98;102120.16;5069850;28;20119;-74
2021/03/29 04:43:09;;;;;;;23.98;14.18;;;;;;;10.73;60.40;102121.94;5066652;28;20527;-73
2021/03/29 04:45:36;;;;;;;17.35;13.60;;;;;;;10.84;60.09;102123.47;5069641;28;20044;-73
2021/03/29 04:48:03;;;;;;;20.55;14.52;;;;;;;10.85;59.89;102123.44;5064047;28;20032;-72
2021/03/29 04:50:30;;;;;;;19.58;15.40;;;;;;;10.77;60.16;102127.97;5066529;28;20048;-72
2021/03/29 04:52:56;;;;;;;17.10;15.10;;;;;;;10.72;60.64;102130.66;5068653;28;20036;-72
2021/03/29 04:55:23;;;;;;;19.15;15.00;;;;;;;10.71;60.51;102128.97;5063097;28;20058;-71
2021/03/29 04:57:49;;;;;;;21.15;14.00;;;;;;;10.68;60.40;102125.56;5074580;28;20127;-73
2021/03/29 05:00:16;;;;;;;22.42;15.73;;;;;;;10.92;59.66;102122.44;5074207;28;20040;-73
2021/03/29 05:02:42;;;;;;;20.45;14.75;;;;;;;10.73;60.32;102128.91;5061528;28;20082;-71
2021/03/29 05:05:10;;;;;;;21.35;15.52;;;;;;;11.05;59.25;102119.56;5073406;28;20083;-73
2021/03/29 05:07:36;;;;;;;23.13;15.20;;;;;;;11.17;58.90;102121.88;5070318;28;20048;-71
2021/03/29 05:10:09;;;;;;;16.83;14.43;;;;;;;11.18;58.65;102123.59;5073902;28;20461;-72
2021/03/29 05:12:35;;;;;;;21.05;15.38;;;;;;;11.10;58.91;102128.13;5073547;28;20161;-73
2021/03/29 05:15:04;;;;;;;18.20;14.73;;;;;;;10.98;59.43;102121.44;5074226;28;20443;-74
2021/03/29 05:17:30;;;;;;;20.60;15.32;;;;;;;10.74;60.04;102122.81;5074284;28;20037;-73
2021/03/29 05:19:57;;;;;;;27.92;16.88;;;;;;;10.71;60.35;102122.88;5074220;28;20041;-73
2021/03/29 05:22:23;;;;;;;26.77;17.40;;;;;;;10.80;60.38;102129.66;5074214;28;21804;-73
2021/03/29 05:24:50;;;;;;;25.70;16.38;;;;;;;10.91;60.10;102115.47;5074006;28;20044;-70
2021/03/29 05:27:16;;;;;;;25.40;16.38;;;;;;;11.02;59.88;102123.06;5074427;28;20406;-72
2021/03/29 05:29:43;;;;;;;21.17;16.40;;;;;;;11.16;59.49;102120.16;5073843;28;20487;-72
2021/03/29 05:32:17;;;;;;;20.27;15.60;;;;;;;11.27;59.44;102118.16;5073672;28;20049;-73
2021/03/29 05:34:47;;;;;;;21.30;16.88;;;;;;;11.26;59.59;102122.53;5073910;28;20048;-72
2021/03/29 05:37:15;;;;;;;18.23;16.30;;;;;;;11.33;59.44;102112.78;5073829;28;20506;-74
2021/03/29 05:39:43;;;;;;;20.30;15.43;;;;;;;11.44;59.45;102120.38;5073406;28;20068;-74
2021/03/29 05:42:10;;;;;;;21.02;15.57;;;;;;;11.56;59.15;102120.09;5073620;28;20044;-74
2021/03/29 05:44:37;;;;;;;21.27;14.68;;;;;;;11.90;58.38;102120.16;5073753;28;20391;-76
2021/03/29 05:47:05;;;;;;;22.65;16.70;;;;;;;12.35;57.25;102122.41;5073618;28;20460;-75
2021/03/29 05:49:33;;;;;;;22.05;15.05;;;;;;;12.55;56.48;102125.34;5073543;28;20506;-74
2021/03/29 05:52:00;;;;;;;21.58;15.93;;;;;;;12.91;54.81;102117.31;5073897;28;20056;-73
2021/03/29 05:54:27;;;;;;;25.83;17.73;;;;;;;12.89;55.52;102124.38;5072795;28;20033;-73
2021/03/29 05:56:54;;;;;;;18.65;15.50;;;;;;;13.03;55.45;102119.56;5071539;28;20128;-74
2021/03/29 05:59:39;;;;;;;28.00;16.63;;;;;;;13.18;55.33;102125.25;5067414;28;20453;-74
2021/03/29 06:02:07;;;;;;;18.48;15.05;;;;;;;13.56;54.36;102113.56;5072135;28;20036;-76
2021/03/29 06:04:46;;;;;;;23.40;15.90;;;;;;;13.80;53.71;102125.03;5064581;28;20036;-74
2021/03/29 06:07:25;;;;;;;25.52;15.63;;;;;;;14.19;52.78;102132.44;5072182;28;20045;-77
2021/03/29 06:09:54;;;;;;;26.90;15.85;;;;;;;14.51;52.03;102134.78;5071840;28;20449;-73
2021/03/29 06:12:22;;;;;;;17.00;15.20;;;;;;;14.63;51.36;102134.31;5073105;28;20091;-73
2021/03/29 06:15:04;;;;;;;21.02;14.18;;;;;;;14.65;51.47;102131.66;5072887;28;20083;-72
2021/03/29 06:17:30;;;;;;;20.83;14.07;;;;;;;14.89;51.95;102129.88;5072825;28;20127;-75
2021/03/29 06:20:00;;;;;;;25.05;15.68;;;;;;;15.25;50.76;102137.25;5066168;28;20548;-75
2021/03/29 06:22:32;;;;;;;27.38;16.83;;;;;;;15.24;50.50;102131.16;5072540;28;20071;-75
2021/03/29 06:25:16;;;;;;;26.85;17.13;;;;;;;15.48;50.26;102134.56;5072301;28;20045;-76
2021/03/29 06:27:56;;;;;;;28.85;17.48;;;;;;;15.24;50.58;102130.28;5068290;28;20044;-77
2021/03/29 06:30:31;;;;;;;27.85;17.67;;;;;;;15.17;50.61;102148.91;5065704;28;20055;-75
2021/03/29 06:33:07;;;;;;;22.58;15.98;;;;;;;15.75;49.19;102144.88;5069168;28;20376;-73
2021/03/29 06:35:43;;;;;;;24.42;16.45;;;;;;;16.21;48.53;102144.66;5071687;28;20041;-74
2021/03/29 06:38:09;;;;;;;27.55;16.55;;;;;;;15.71;48.07;102141.53;5071191;28;20040;-75
2021/03/29 06:40:40;;;;;;;20.55;15.93;;;;;;;16.90;45.54;102141.59;5072283;28;20471;-73
2021/03/29 06:43:25;;;;;;;31.90;16.63;;;;;;;17.60;43.99;102137.34;5064812;28;20131;-73
2021/03/29 06:46:05;;;;;;;19.90;14.15;;;;;;;17.88;43.35;102128.09;5063091;28;20044;-73
2021/03/29 06:48:37;;;;;;;18.77;13.55;;;;;;;18.29;42.61;102131.22;5071904;28;20418;-73
2021/03/29 06:51:13;;;;;;;25.38;15.18;;;;;;;18.57;41.94;102147.31;5072148;28;20490;-69
2021/03/29 06:53:45;;;;;;;21.98;14.40;;;;;;;18.96;41.55;102132.91;5071460;28;20044;-71
2021/03/29 06:56:25;;;;;;;18.55;14.32;;;;;;;19.33;40.71;102136.13;5072276;28;20044;-71
2021/03/29 06:59:05;;;;;;;20.60;14.43;;;;;;;19.42;40.95;102130.31;5051169;28;20052;-79
2021/03/29 07:01:35;;;;;;;18.77;14.05;;;;;;;19.61;40.49;102138.09;5061363;28;20390;-77
2021/03/29 07:04:04;;;;;;;26.10;15.35;;;;;;;19.78;40.02;102139.75;5055530;28;20043;-80
2021/03/29 07:06:33;;;;;;;24.85;13.98;;;;;;;20.28;40.33;102143.78;5057509;28;20441;-74
2021/03/29 07:09:05;;;;;;;21.77;14.32;;;;;;;20.19;39.04;102147.00;5058908;28;20044;-75
2021/03/29 07:11:38;;;;;;;21.17;13.02;;;;;;;20.73;38.98;102141.94;5059303;28;20033;-82
2021/03/29 07:14:07;;;;;;;22.30;14.50;;;;;;;20.33;41.40;102155.81;5067118;28;20036;-75
2021/03/29 07:16:35;;;;;;;23.05;13.95;;;;;;;19.56;43.31;102158.63;5071952;28;20044;-74
2021/03/29 07:19:05;;;;;;;15.38;13.05;;;;;;;20.86;41.25;102162.28;5070733;28;20055;-74
2021/03/29 07:21:35;;;;;;;18.02;16.08;;;;;;;19.72;42.46;102164.78;5067569;28;20044;-75
2021/03/29 07:24:08;;;;;;;23.25;16.42;;;;;;;19.71;43.80;102168.38;5061885;28;20025;-75
2021/03/29 07:26:59;;;;;;;23.50;15.27;;;;;;;20.14;43.00;102157.88;5071170;28;20052;-74
2021/03/29 07:29:32;;;;;;;18.95;14.95;;;;;;;19.54;43.27;102157.84;5062830;28;20044;-76
2021/03/29 07:32:06;;;;;;;26.50;16.27;;;;;;;19.45;43.45;102166.31;5071718;28;20528;-76
2021/03/29 07:34:49;;;;;;;15.77;14.07;;;;;;;19.81;42.79;102166.00;5059142;28;20032;-75
2021/03/29 07:37:26;;;;;;;15.32;13.60;;;;;;;20.19;41.56;102168.19;5048136;28;20048;-73
2021/03/29 07:39:53;;;;;;;21.20;15.98;;;;;;;19.71;41.91;102172.78;5063564;28;20144;-71
2021/03/29 07:42:23;;;;;;;23.58;16.88;;;;;;;19.75;43.28;102174.31;5071605;28;20059;-71
2021/03/29 07:44:57;;;;;;;22.92;16.23;;;;;;;19.80;43.11;102172.25;5065069;28;20045;-73
2021/03/29 07:47:49;;;;;;;17.75;14.48;;;;;;;20.20;40.97;102180.50;5068073;28;20040;-72
2021/03/29 07:50:17;;;;;;;15.60;14.07;;;;;;;20.09;41.90;102179.34;5074932;28;20055;-74
2021/03/29 07:52:48;;;;;;;17.98;13.73;;;;;;;20.50;40.09;102178.66;5075080;28;20052;-72
2021/03/29 07:55:28;;;;;;;17.50;14.20;;;;;;;19.87;40.58;102182.41;5075568;28;20541;-72
2021/03/29 07:58:00;;;;;;;21.77;14.10;;;;;;;20.84;39.91;102177.44;5074431;28;20135;-73
2021/03/29 08:00:31;;;;;;;16.60;12.95;;;;;;;20.52;39.86;102174.13;5058944;28;20530;-72
2021/03/29 08:03:24;;;;;;;18.23;14.40;;;;;;;20.69;39.31;102182.84;5073611;28;20056;-71
2021/03/29 08:05:52;;;;;;;20.40;13.20;;;;;;;20.97;39.33;102166.03;5074157;28;20048;-72
2021/03/29 08:08:25;;;;;;;12.30;10.57;;;;;;;22.74;35.37;102178.94;5072950;28;20524;-72
2021/03/29 08:11:05;;;;;;;13.73;12.50;;;;;;;22.13;37.30;102174.38;5074241;28;20040;-76
2021/03/29 08:13:43;;;;;;;14.15;12.27;;;;;;;23.31;35.53;102174.84;5069675;28;20503;-73
2021/03/29 08:16:31;;;;;;;14.55;12.60;;;;;;;23.77;33.75;102176.81;5071630;28;20071;-72
2021/03/29 08:19:17;;;;;;;13.88;11.98;;;;;;;24.94;31.77;102179.28;5072495;28;20491;-71
2021/03/29 08:21:56;;;;;;;16.55;12.90;;;;;;;24.65;32.31;102181.59;5072536;28;20094;-72
2021/03/29 08:24:30;;;;;;;16.25;13.50;;;;;;;23.68;33.68;102182.81;5068576;28;20136;-72
2021/03/29 08:26:59;;;;;;;15.85;12.63;;;;;;;24.77;32.27;102183.31;5073340;28;20040;-70
2021/03/29 08:29:30;;;;;;;28.27;12.35;;;;;;;25.27;31.97;102183.72;5072997;28;20068;-71
2021/03/29 08:32:30;;;;;;;17.02;15.05;;;;;;;24.92;31.43;102182.03;5072412;28;20570;-71
2021/03/29 08:35:13;;;;;;;16.10;14.38;;;;;;;25.59;30.85;102187.25;5073295;28;20037;-71
2021/03/29 08:37:45;;;;;;;17.10;13.52;;;;;;;25.29;31.36;102185.28;5073703;28;20036;-70
2021/03/29 08:40:23;;;;;;;16.08;14.40;;;;;;;24.39;32.06;102181.81;5072905;28;20044;-71
2021/03/29 08:42:54;;;;;;;23.33;14.93;;;;;;;25.13;31.56;102184.00;5072732;28;20051;-71
2021/03/29 08:45:24;;;;;;;23.27;13.45;;;;;;;26.30;29.47;102183.97;5073567;28;20040;-72
2021/03/29 08:47:54;;;;;;;14.65;12.23;;;;;;;25.81;29.99;102169.47;5073164;28;20048;-72
2021/03/29 08:50:26;;;;;;;16.58;13.73;;;;;;;25.50;30.81;102188.00;5070696;28;20079;-72
2021/03/29 08:52:59;;;;;;;15.95;14.45;;;;;;;25.02;31.36;102185.69;5073502;28;20495;-72
2021/03/29 08:55:31;;;;;;;17.08;14.43;;;;;;;24.50;32.32;102184.50;5073258;28;20052;-70
2021/03/29 08:57:58;;;;;;;21.80;14.20;;;;;;;24.86;32.36;102185.22;5067845;28;20040;-72
2021/03/29 09:00:31;;;;;;;17.05;15.15;;;;;;;25.25;31.58;102185.69;5071982;28;20163;-70
2021/03/29 09:02:58;;;;;;;14.43;12.52;;;;;;;25.28;30.69;102185.41;5072503;28;20040;-72
2021/03/29 09:05:26;;;;;;;22.48;12.75;;;;;;;25.79;30.18;102182.13;5059567;28;20041;-72
2021/03/29 09:07:53;;;;;;;18.80;16.27;;;;;;;25.03;31.25;102190.03;5071275;28;20036;-71
2021/03/29 09:10:26;;;;;;;16.33;14.18;;;;;;;25.49;30.68;102185.47;5069781;28;20048;-70
2021/03/29 09:12:59;;;;;;;15.55;13.80;;;;;;;25.42;30.82;102189.63;5067218;28;20043;-70
2021/03/29 09:15:31;;;;;;;13.38;11.80;;;;;;;24.80;31.33;102191.88;5067619;28;20072;-70
2021/03/29 09:18:14;;;;;;;14.60;12.52;;;;;;;24.98;31.09;102194.91;5053928;28;20041;-71
2021/03/29 09:20:46;;;;;;;18.13;13.63;;;;;;;24.89;31.42;102192.97;5062899;28;20037;-71
2021/03/29 09:23:15;;;;;;;17.50;14.90;;;;;;;24.28;32.27;102201.25;5059477;28;20037;-72
2021/03/29 09:25:44;;;;;;;17.33;13.18;;;;;;;24.03;32.96;102199.66;5058016;28;20047;-72
2021/03/29 09:28:32;;;;;;;24.67;13.18;;;;;;;23.53;32.98;102196.25;5045675;28;20052;-71
2021/03/29 09:31:19;;;;;;;14.27;12.13;;;;;;;23.63;33.08;102195.63;5069597;28;20032;-70
2021/03/29 09:33:48;;;;;;;15.30;13.85;;;;;;;23.28;33.71;102196.38;5071302;28;20048;-72
2021/03/29 09:36:18;;;;;;;24.73;14.02;;;;;;;22.44;35.27;102195.22;5070979;28;20053;-73
2021/03/29 09:38:53;;;;;;;18.35;14.63;;;;;;;21.89;36.31;102196.28;5070092;28;20045;-71
2021/03/29 09:41:33;;;;;;;24.60;14.73;;;;;;;21.63;36.47;102197.16;5067539;28;20075;-71
2021/03/29 09:44:07;;;;;;;17.02;13.65;;;;;;;21.74;36.42;102188.50;5052155;28;20071;-73
2021/03/29 09:46:37;;;;;;;15.48;13.88;;;;;;;21.79;36.70;102187.25;5071711;28;20048;-70
2021/03/29 09:49:15;;;;;;;22.90;14.30;;;;;;;21.71;36.67;102184.22;5059853;28;20049;-73
2021/03/29 09:51:45;;;;;;;15.23;13.45;;;;;;;21.54;37.32;102192.47;5053973;28;20124;-73
2021/03/29 09:54:33;;;;;;;17.38;15.40;;;;;;;21.28;37.69;102186.16;5060912;28;20055;-71
2021/03/29 09:57:21;;;;;;;24.88;16.67;;;;;;;21.00;39.41;102181.78;5056448;28;20040;-73
2021/03/29 09:59:52;;;;;;;17.02;14.35;;;;;;;20.93;38.37;102186.59;5056711;28;20044;-71
2021/03/29 10:02:25;;;;;;;16.23;14.55;;;;;;;21.19;38.40;102179.63;5056596;28;20049;-72
2021/03/29 10:05:10;;;;;;;19.25;15.80;;;;;;;20.92;38.19;102175.13;5060366;28;20048;-71
2021/03/29 10:07:54;;;;;;;18.95;14.35;;;;;;;21.12;38.11;102175.69;5060375;28;20489;-72
2021/03/29 10:10:29;;;;;;;26.73;16.15;;;;;;;20.96;38.17;102175.81;5065401;28;20051;-71
2021/03/29 10:13:10;;;;;;;19.13;15.65;;;;;;;21.14;38.34;102173.78;5050698;28;20045;-72
2021/03/29 10:15:39;;;;;;;17.77;15.07;;;;;;;20.95;38.71;102182.06;5068621;28;20041;-72
2021/03/29 10:18:13;;;;;;;15.27;13.73;;;;;;;21.12;38.38;102170.38;5068426;28;20064;-72
2021/03/29 10:20:43;;;;;;;19.15;16.15;;;;;;;20.95;38.00;102173.25;5066316;28;20040;-71
2021/03/29 10:23:25;;;;;;;20.75;16.45;;;;;;;20.82;38.87;102171.34;5066609;28;20119;-71
2021/03/29 10:26:15;;;;;;;25.55;23.10;;;;;;;20.65;39.14;102166.25;5062581;28;20052;-71
2021/03/29 10:29:05;;;;;;;21.58;16.40;;;;;;;20.60;39.38;102163.91;5061391;28;20075;-71
2021/03/29 10:31:34;;;;;;;19.77;17.77;;;;;;;20.38;40.09;102166.13;5062019;28;20045;-72
2021/03/29 10:34:01;;;;;;;18.88;15.68;;;;;;;20.55;39.24;102170.44;5068085;28;20033;-72
2021/03/29 10:36:29;;;;;;;18.90;15.48;;;;;;;20.54;39.29;102169.56;5065879;28;20037;-72
2021/03/29 10:38:57;;;;;;;19.15;16.08;;;;;;;20.49;39.36;102165.50;5057660;28;20045;-72
2021/03/29 10:41:24;;;;;;;17.02;14.43;;;;;;;20.37;39.97;102167.09;5065616;28;20382;-73
2021/03/29 10:43:51;;;;;;;19.70;17.70;;;;;;;20.25;39.71;102163.38;5069196;28;20051;-71
2021/03/29 10:46:18;;;;;;;19.65;15.77;;;;;;;20.11;39.92;102166.00;5070180;28;20064;-75
2021/03/29 10:48:45;;;;;;;22.42;14.55;;;;;;;20.38;39.34;102153.75;5070163;28;20074;-74
2021/03/29 10:51:11;;;;;;;20.35;14.68;;;;;;;20.46;39.23;102155.09;5058309;28;20045;-71
2021/03/29 10:53:38;;;;;;;18.17;16.10;;;;;;;20.51;39.15;102156.53;5056349;28;20123;-70
2021/03/29 10:56:04;;;;;;;18.67;16.67;;;;;;;20.52;39.48;102152.09;5059406;28;20095;-70
2021/03/29 10:58:31;;;;;;;17.83;16.13;;;;;;;20.53;39.45;102140.53;5057938;28;20768;-71
2021/03/29 11:00:57;;;;;;;16.85;14.48;;;;;;;20.43;39.78;102145.50;5054283;28;20098;-70
2021/03/29 11:03:24;;;;;;;15.55;13.93;;;;;;;20.57;39.51;102139.41;5059750;28;20123;-69
2021/03/29 11:05:51;;;;;;;23.60;16.42;;;;;;;20.41;39.43;102142.97;5062049;28;20074;-73
2021/03/29 11:08:19;;;;;;;17.30;13.57;;;;;;;20.49;39.97;102136.38;5056492;28;20044;-72
2021/03/29 11:10:46;;;;;;;16.00;14.43;;;;;;;20.35;39.36;102131.91;5057788;28;20503;-70
2021/03/29 11:13:22;;;;;;;15.70;14.20;;;;;;;20.49;39.71;102131.06;5060935;28;20101;-71
2021/03/29 11:15:49;;;;;;;26.17;15.55;;;;;;;20.54;38.81;102137.78;5059417;28;20033;-70
2021/03/29 11:18:15;;;;;;;17.23;14.80;;;;;;;20.44;39.37;102133.13;5055888;28;20099;-69
2021/03/29 11:20:46;;;;;;;19.02;15.00;;;;;;;20.46;38.91;102131.25;5058476;28;20033;-72
2021/03/29 11:23:13;;;;;;;16.98;14.57;;;;;;;20.40;38.74;102127.19;5060996;28;20496;-72
2021/03/29 11:25:39;;;;;;;18.95;13.85;;;;;;;20.45;38.33;102132.16;5068658;28;20094;-72
2021/03/29 11:28:06;;;;;;;16.15;14.55;;;;;;;20.36;38.21;102128.31;5065338;28;20041;-74
2021/03/29 11:30:32;;;;;;;24.15;14.35;;;;;;;20.45;38.93;102125.06;5064102;28;20127;-75